createdAt,value
2018-01-14T00:01:31.054Z,3.40
2018-01-14T00:03:59.435Z,3.40
2018-01-14T00:06:27.760Z,3.40
2018-01-14T00:08:55.323Z,3.40
2018-01-14T00:11:22.950Z,3.30
2018-01-14T00:13:50.533Z,3.30
2018-01-14T00:16:18.225Z,3.20
2018-01-14T00:18:45.835Z,3.30
2018-01-14T00:21:13.501Z,3.20
2018-01-14T00:23:41.114Z,3.00
2018-01-14T00:26:08.698Z,3.00
2018-01-14T00:28:36.320Z,3.00
2018-01-14T00:31:03.898Z,3.10
2018-01-14T00:33:32.316Z,3.30
2018-01-14T00:35:59.910Z,3.30
2018-01-14T00:38:27.489Z,3.10
2018-01-14T00:40:55.096Z,3.20
2018-01-14T00:43:22.715Z,3.10
2018-01-14T00:45:51.246Z,3.30
2018-01-14T00:48:18.839Z,3.20
2018-01-14T00:50:47.379Z,3.30
2018-01-14T00:53:15.019Z,3.30
2018-01-14T00:55:42.629Z,3.30
2018-01-14T00:58:10.278Z,3.30
2018-01-14T01:00:37.881Z,3.10
2018-01-14T01:03:06.246Z,3.00
2018-01-14T01:05:33.821Z,3.00
2018-01-14T01:08:02.171Z,3.20
2018-01-14T01:10:29.802Z,3.20
2018-01-14T01:12:57.361Z,3.10
2018-01-14T01:15:24.963Z,3.10
2018-01-14T01:17:53.340Z,3.20
2018-01-14T01:20:20.942Z,3.20
2018-01-14T01:22:48.558Z,3.20
2018-01-14T01:25:16.130Z,3.10
2018-01-14T01:27:44.517Z,3.10
2018-01-14T01:30:12.836Z,3.00
2018-01-14T01:32:40.390Z,3.00
2018-01-14T01:35:07.994Z,3.10
2018-01-14T01:37:36.386Z,2.90
2018-01-14T01:40:04.875Z,3.00
2018-01-14T01:42:32.502Z,3.00
2018-01-14T01:45:00.083Z,3.00
2018-01-14T01:47:28.586Z,2.90
2018-01-14T01:49:56.148Z,2.80
2018-01-14T01:52:23.722Z,2.80
2018-01-14T01:54:51.351Z,2.90
2018-01-14T01:57:18.942Z,3.00
2018-01-14T01:59:46.538Z,3.00
2018-01-14T02:02:14.182Z,2.80
2018-01-14T02:04:41.747Z,2.90
2018-01-14T02:07:09.339Z,2.80
2018-01-14T02:09:37.682Z,2.80
2018-01-14T02:12:05.286Z,2.70
2018-01-14T02:14:32.846Z,2.80
2018-01-14T02:17:00.453Z,2.70
2018-01-14T02:19:28.034Z,2.70
2018-01-14T02:21:56.354Z,2.60
2018-01-14T02:24:23.960Z,2.60
2018-01-14T02:26:51.533Z,2.60
2018-01-14T02:29:20.019Z,2.70
2018-01-14T02:31:48.350Z,2.70
2018-01-14T02:34:15.916Z,2.70
2018-01-14T02:36:43.498Z,2.70
2018-01-14T02:39:11.823Z,2.80
2018-01-14T02:41:39.414Z,2.80
2018-01-14T02:44:06.989Z,2.70
2018-01-14T02:46:35.370Z,2.60
2018-01-14T02:49:03.978Z,2.70
2018-01-14T02:51:31.589Z,2.70
2018-01-14T02:53:59.242Z,2.80
2018-01-14T02:56:26.811Z,2.80
2018-01-14T02:58:55.154Z,2.70
2018-01-14T03:01:23.018Z,2.70
2018-01-14T03:03:50.602Z,2.80
2018-01-14T03:06:18.277Z,2.60
2018-01-14T03:08:45.883Z,2.50
2018-01-14T03:11:13.450Z,2.50
2018-01-14T03:13:41.014Z,2.50
2018-01-14T03:16:08.602Z,2.50
2018-01-14T03:18:36.290Z,2.40
2018-01-14T03:21:04.725Z,2.60
2018-01-14T03:23:32.284Z,2.60
2018-01-14T03:25:59.871Z,2.70
2018-01-14T03:28:27.430Z,2.60
2018-01-14T03:30:55.059Z,2.50
2018-01-14T03:33:22.721Z,2.50
2018-01-14T03:35:50.290Z,2.60
2018-01-14T03:38:17.890Z,2.40
2018-01-14T03:40:46.221Z,2.40
2018-01-14T03:43:13.814Z,2.40
2018-01-14T03:45:41.382Z,2.40
2018-01-14T03:48:09.077Z,2.50
2018-01-14T03:50:36.663Z,2.50
2018-01-14T03:53:04.233Z,2.50
2018-01-14T03:55:31.834Z,2.30
2018-01-14T03:57:59.407Z,2.40
2018-01-14T04:00:26.984Z,2.40
2018-01-14T04:02:54.585Z,2.30
2018-01-14T04:05:22.146Z,2.20
2018-01-14T04:07:49.734Z,2.30
2018-01-14T04:10:17.334Z,2.40
2018-01-14T04:12:44.909Z,2.50
2018-01-14T04:15:12.475Z,2.60
2018-01-14T04:17:40.082Z,2.60
2018-01-14T04:20:07.654Z,2.40
2018-01-14T04:22:35.257Z,2.30
2018-01-14T04:25:02.843Z,2.20
2018-01-14T04:27:30.407Z,2.40
2018-01-14T04:29:58.003Z,2.50
2018-01-14T04:32:25.566Z,2.50
2018-01-14T04:34:53.126Z,2.20
2018-01-14T04:37:20.742Z,2.10
2018-01-14T04:39:49.059Z,2.40
2018-01-14T04:42:16.663Z,2.40
2018-01-14T04:44:45.117Z,2.20
2018-01-14T04:47:12.675Z,2.20
2018-01-14T04:49:41.044Z,2.40
2018-01-14T04:52:08.670Z,2.40
2018-01-14T04:54:36.245Z,2.40
2018-01-14T04:57:03.934Z,2.50
2018-01-14T04:59:31.554Z,2.50
2018-01-14T05:01:59.121Z,2.50
2018-01-14T05:04:26.689Z,2.40
2018-01-14T05:06:54.309Z,2.30
2018-01-14T05:09:22.013Z,2.40
2018-01-14T05:11:49.635Z,2.30
2018-01-14T05:14:17.215Z,2.30
2018-01-14T05:16:44.813Z,2.30
2018-01-14T05:19:12.370Z,2.40
2018-01-14T05:21:39.971Z,2.40
2018-01-14T05:24:07.535Z,2.30
2018-01-14T05:26:35.087Z,2.40
2018-01-14T05:29:02.663Z,2.30
2018-01-14T05:31:30.250Z,2.20
2018-01-14T05:33:57.834Z,2.30
2018-01-14T05:36:26.202Z,2.20
2018-01-14T05:38:53.818Z,2.10
2018-01-14T05:41:21.384Z,2.20
2018-01-14T05:43:49.111Z,2.30
2018-01-14T05:46:16.703Z,2.40
2018-01-14T05:48:44.402Z,2.50
2018-01-14T05:51:12.765Z,2.20
2018-01-14T05:53:40.321Z,2.20
2018-01-14T05:56:07.987Z,2.30
2018-01-14T05:58:35.701Z,2.30
2018-01-14T06:01:03.315Z,2.30
2018-01-14T06:03:30.895Z,2.40
2018-01-14T06:05:59.381Z,2.30
2018-01-14T06:08:26.934Z,2.20
2018-01-14T06:10:55.391Z,2.40
2018-01-14T06:13:23.146Z,2.40
2018-01-14T06:15:50.709Z,2.40
2018-01-14T06:18:18.306Z,2.30
2018-01-14T06:20:45.866Z,2.10
2018-01-14T06:23:13.470Z,2.20
2018-01-14T06:25:41.036Z,2.20
2018-01-14T06:28:08.590Z,2.40
2018-01-14T06:30:36.181Z,2.30
2018-01-14T06:33:04.650Z,2.20
2018-01-14T06:35:32.990Z,2.30
2018-01-14T06:38:00.579Z,2.30
2018-01-14T06:40:28.286Z,2.20
2018-01-14T06:42:55.949Z,2.10
2018-01-14T06:45:23.617Z,2.20
2018-01-14T06:47:51.234Z,2.20
2018-01-14T06:50:19.666Z,2.20
2018-01-14T06:52:47.230Z,2.20
2018-01-14T06:55:14.950Z,2.20
2018-01-14T06:57:42.506Z,2.20
2018-01-14T07:00:10.098Z,2.30
2018-01-14T07:02:37.662Z,2.10
2018-01-14T07:05:05.222Z,2.00
2018-01-14T07:07:32.953Z,2.10
2018-01-14T07:10:00.550Z,2.10
2018-01-14T07:12:28.154Z,2.20
2018-01-14T07:14:56.486Z,2.40
2018-01-14T07:17:24.105Z,2.40
2018-01-14T07:19:51.730Z,2.30
2018-01-14T07:22:19.439Z,2.30
2018-01-14T07:24:47.043Z,2.20
2018-01-14T07:27:14.630Z,2.10
2018-01-14T07:29:42.986Z,2.20
2018-01-14T07:32:10.635Z,2.20
2018-01-14T07:34:38.194Z,2.20
2018-01-14T07:37:05.793Z,2.20
2018-01-14T07:39:34.158Z,2.00
2018-01-14T07:42:02.506Z,2.10
2018-01-14T07:44:30.197Z,2.10
2018-01-14T07:46:58.569Z,2.10
2018-01-14T07:49:26.899Z,2.10
2018-01-14T07:51:54.457Z,2.00
2018-01-14T07:54:22.067Z,2.20
2018-01-14T07:56:50.394Z,2.20
2018-01-14T07:59:17.983Z,2.20
2018-01-14T08:01:45.562Z,2.10
2018-01-14T08:04:13.946Z,2.30
2018-01-14T08:06:42.324Z,2.30
2018-01-14T08:09:10.646Z,2.40
2018-01-14T08:11:38.370Z,2.40
2018-01-14T08:14:06.108Z,2.20
2018-01-14T08:16:33.733Z,2.20
2018-01-14T08:19:01.430Z,2.30
2018-01-14T08:21:29.898Z,2.00
2018-01-14T08:23:57.494Z,2.00
2018-01-14T08:26:25.071Z,1.90
2018-01-14T08:28:52.675Z,1.90
2018-01-14T08:31:21.744Z,2.00
2018-01-14T08:33:49.418Z,2.00
2018-01-14T08:36:16.986Z,2.00
2018-01-14T08:38:44.618Z,1.90
2018-01-14T08:41:12.280Z,2.10
2018-01-14T08:43:39.869Z,2.10
2018-01-14T08:46:07.456Z,2.00
2018-01-14T08:48:35.842Z,2.30
2018-01-14T08:51:03.399Z,2.20
2018-01-14T08:53:30.976Z,2.30
2018-01-14T08:55:58.559Z,2.40
2018-01-14T08:58:26.114Z,2.40
2018-01-14T09:00:53.706Z,2.30
2018-01-14T09:03:22.079Z,2.30
2018-01-14T09:05:49.690Z,2.20
2018-01-14T09:08:17.259Z,2.30
2018-01-14T09:10:44.818Z,2.30
2018-01-14T09:13:12.422Z,2.40
2018-01-14T09:15:40.759Z,2.40
2018-01-14T09:18:08.347Z,2.40
2018-01-14T09:20:35.935Z,2.30
2018-01-14T09:23:03.508Z,2.40
2018-01-14T09:25:31.098Z,2.30
2018-01-14T09:27:58.663Z,2.40
2018-01-14T09:30:38.130Z,2.30
2018-01-14T09:33:06.447Z,2.40
2018-01-14T09:35:34.071Z,2.40
2018-01-14T09:38:02.542Z,2.40
2018-01-14T09:40:30.870Z,2.50
2018-01-14T09:42:58.455Z,2.50
2018-01-14T09:45:26.022Z,2.40
2018-01-14T09:47:53.668Z,2.30
2018-01-14T09:50:21.312Z,2.40
2018-01-14T09:52:48.906Z,2.30
2018-01-14T09:55:16.518Z,2.40
2018-01-14T09:57:44.106Z,2.40
2018-01-14T10:00:11.705Z,2.40
2018-01-14T10:02:41.063Z,2.20
2018-01-14T10:05:08.916Z,2.30
2018-01-14T10:07:36.872Z,2.30
2018-01-14T10:10:04.483Z,2.40
2018-01-14T10:12:32.846Z,2.50
2018-01-14T10:15:00.522Z,2.50
2018-01-14T10:17:28.886Z,2.50
2018-01-14T10:19:56.443Z,2.50
2018-01-14T10:22:24.039Z,2.60
2018-01-14T10:24:51.612Z,2.60
2018-01-14T10:27:19.171Z,2.50
2018-01-14T10:29:46.771Z,2.30
2018-01-14T10:32:14.446Z,2.40
2018-01-14T10:34:42.050Z,2.50
2018-01-14T10:37:10.530Z,2.40
2018-01-14T10:39:38.253Z,2.50
2018-01-14T10:42:06.634Z,2.50
2018-01-14T10:44:34.200Z,2.50
2018-01-14T10:47:02.576Z,2.50
2018-01-14T10:49:30.900Z,2.50
2018-01-14T10:51:58.495Z,2.40
2018-01-14T10:54:26.078Z,2.40
2018-01-14T10:56:54.450Z,2.40
2018-01-14T10:59:22.786Z,2.60
2018-01-14T11:01:50.354Z,2.50
2018-01-14T11:04:17.994Z,2.50
2018-01-14T11:06:45.554Z,2.60
2018-01-14T11:09:13.167Z,2.70
2018-01-14T11:11:40.746Z,2.60
2018-01-14T11:14:08.578Z,2.60
2018-01-14T11:16:36.153Z,2.60
2018-01-14T11:19:03.943Z,2.50
2018-01-14T11:21:31.551Z,2.60
2018-01-14T11:23:59.125Z,2.60
2018-01-14T11:26:27.497Z,2.50
2018-01-14T11:28:55.863Z,2.60
2018-01-14T11:31:23.434Z,2.60
2018-01-14T11:33:51.888Z,2.70
2018-01-14T11:36:19.452Z,2.70
2018-01-14T11:38:47.210Z,2.60
2018-01-14T11:41:14.841Z,2.80
2018-01-14T11:43:42.448Z,2.60
2018-01-14T11:46:10.057Z,2.60
2018-01-14T11:48:37.610Z,2.50
2018-01-14T11:51:05.211Z,2.80
2018-01-14T11:53:32.772Z,2.70
2018-01-14T11:56:00.448Z,2.80
2018-01-14T11:58:28.228Z,2.80
2018-01-14T12:00:55.794Z,2.70
2018-01-14T12:03:23.386Z,2.80
2018-01-14T12:05:50.954Z,2.90
2018-01-14T12:08:18.559Z,3.00
2018-01-14T12:10:46.135Z,3.00
2018-01-14T12:13:13.696Z,2.90
2018-01-14T12:15:41.346Z,3.00
2018-01-14T12:18:08.912Z,2.90
2018-01-14T12:20:36.680Z,2.70
2018-01-14T12:23:04.230Z,2.60
2018-01-14T12:25:31.806Z,2.80
2018-01-14T12:27:59.431Z,2.80
2018-01-14T12:30:27.766Z,2.70
2018-01-14T12:33:01.375Z,2.70
2018-01-14T12:35:28.966Z,2.70
2018-01-14T12:37:57.286Z,3.00
2018-01-14T12:40:24.915Z,2.90
2018-01-14T12:42:52.492Z,2.90
2018-01-14T12:45:20.120Z,2.80
2018-01-14T12:47:48.451Z,3.00
2018-01-14T12:50:16.071Z,3.00
2018-01-14T12:52:43.670Z,3.00
2018-01-14T12:55:11.243Z,3.10
2018-01-14T12:57:38.839Z,3.00
2018-01-14T13:00:06.415Z,3.00
2018-01-14T13:02:34.052Z,2.90
2018-01-14T13:05:02.387Z,3.10
2018-01-14T13:07:29.965Z,3.10
2018-01-14T13:09:57.632Z,3.10
2018-01-14T13:12:25.288Z,3.10
2018-01-14T13:14:52.871Z,3.10
2018-01-14T13:17:21.195Z,2.90
2018-01-14T13:19:48.814Z,2.80
2018-01-14T13:22:16.386Z,3.10
2018-01-14T13:24:43.975Z,3.00
2018-01-14T13:27:11.665Z,3.00
2018-01-14T13:29:39.238Z,3.10
2018-01-14T13:32:07.616Z,3.10
2018-01-14T13:34:36.071Z,3.00
2018-01-14T13:37:03.750Z,3.00
2018-01-14T13:39:32.119Z,3.00
2018-01-14T13:42:00.450Z,3.00
2018-01-14T13:44:28.070Z,3.00
2018-01-14T13:46:56.445Z,3.10
2018-01-14T13:49:24.784Z,3.10
2018-01-14T13:51:52.355Z,3.10
2018-01-14T13:54:20.723Z,3.10
2018-01-14T13:56:48.343Z,3.00
2018-01-14T13:59:15.918Z,3.00
2018-01-14T14:01:43.494Z,3.00
2018-01-14T14:04:11.183Z,3.10
2018-01-14T14:06:39.562Z,3.10
2018-01-14T14:09:08.041Z,3.20
2018-01-14T14:11:35.606Z,3.20
2018-01-14T14:14:03.960Z,3.00
2018-01-14T14:16:32.340Z,3.20
2018-01-14T14:18:59.910Z,3.10
2018-01-14T14:21:28.245Z,3.10
2018-01-14T14:23:55.839Z,3.10
2018-01-14T14:26:23.411Z,3.20
2018-01-14T14:28:51.777Z,3.40
2018-01-14T14:31:19.367Z,3.40
2018-01-14T14:33:47.035Z,3.50
2018-01-14T14:36:14.606Z,3.50
2018-01-14T14:38:42.250Z,3.60
2018-01-14T14:41:09.886Z,3.70
2018-01-14T14:43:38.222Z,3.30
2018-01-14T14:46:05.827Z,3.30
2018-01-14T14:48:34.298Z,3.20
2018-01-14T14:51:02.675Z,3.20
2018-01-14T14:53:31.047Z,3.30
2018-01-14T14:55:58.771Z,3.30
2018-01-14T14:58:26.399Z,3.30
2018-01-14T15:00:53.967Z,3.30
2018-01-14T15:03:21.591Z,3.40
2018-01-14T15:05:50.060Z,3.40
2018-01-14T15:08:17.703Z,3.40
2018-01-14T15:10:45.275Z,3.50
2018-01-14T15:13:12.868Z,3.50
2018-01-14T15:15:41.230Z,3.40
2018-01-14T15:18:09.567Z,3.30
2018-01-14T15:20:37.219Z,3.30
2018-01-14T15:23:04.838Z,3.40
2018-01-14T15:25:33.192Z,3.30
2018-01-14T15:28:00.809Z,3.30
2018-01-14T15:30:28.367Z,3.30
2018-01-14T15:32:55.934Z,3.40
2018-01-14T15:35:23.566Z,3.30
2018-01-14T15:37:51.144Z,3.30
2018-01-14T15:40:18.746Z,3.30
2018-01-14T15:42:46.315Z,3.30
2018-01-14T15:45:14.690Z,3.30
2018-01-14T15:47:43.035Z,3.30
2018-01-14T15:50:10.600Z,3.30
2018-01-14T15:52:38.207Z,3.30
2018-01-14T15:55:05.832Z,3.30
2018-01-14T15:57:33.441Z,3.10
2018-01-14T16:00:01.013Z,3.30
2018-01-14T16:02:28.630Z,3.30
2018-01-14T16:04:57.099Z,3.20
2018-01-14T16:07:24.666Z,3.20
2018-01-14T16:09:53.043Z,3.00
2018-01-14T16:12:21.394Z,3.00
2018-01-14T16:14:49.005Z,2.90
2018-01-14T16:17:16.569Z,3.00
2018-01-14T16:19:44.127Z,3.20
2018-01-14T16:22:11.791Z,3.20
2018-01-14T16:24:39.372Z,3.10
2018-01-14T16:27:06.934Z,3.10
2018-01-14T16:29:34.558Z,2.90
2018-01-14T16:32:02.134Z,3.00
2018-01-14T16:34:29.720Z,3.10
2018-01-14T16:36:57.283Z,3.20
2018-01-14T16:39:24.904Z,3.10
2018-01-14T16:41:52.499Z,3.10
2018-01-14T16:44:20.066Z,3.10
2018-01-14T16:46:47.675Z,3.10
2018-01-14T16:49:15.240Z,3.00
2018-01-14T16:51:42.879Z,3.00
2018-01-14T16:54:10.457Z,3.00
2018-01-14T16:56:38.026Z,3.00
2018-01-14T16:59:05.697Z,3.00
2018-01-14T17:01:33.233Z,3.00
2018-01-14T17:04:00.864Z,2.90
2018-01-14T17:06:29.207Z,2.80
2018-01-14T17:08:56.835Z,2.80
2018-01-14T17:11:24.412Z,2.80
2018-01-14T17:13:51.967Z,2.80
2018-01-14T17:16:19.571Z,2.80
2018-01-14T17:18:47.898Z,2.70
2018-01-14T17:21:15.523Z,2.70
2018-01-14T17:23:43.107Z,2.70
2018-01-14T17:26:10.687Z,2.70
2018-01-14T17:28:38.279Z,2.60
2018-01-14T17:31:05.873Z,2.60
2018-01-14T17:33:33.492Z,2.60
2018-01-14T17:36:01.067Z,2.60
2018-01-14T17:38:29.411Z,2.50
2018-01-14T17:40:57.011Z,2.40
2018-01-14T17:43:24.574Z,2.40
2018-01-14T17:45:52.188Z,2.40
2018-01-14T17:48:19.779Z,2.30
2018-01-14T17:50:48.183Z,2.30
2018-01-14T17:53:15.798Z,2.30
2018-01-14T17:55:43.374Z,2.30
2018-01-14T17:58:11.786Z,2.20
2018-01-14T18:00:39.358Z,2.20
2018-01-14T18:03:06.949Z,2.20
2018-01-14T18:05:34.688Z,2.20
2018-01-14T18:08:02.311Z,2.20
2018-01-14T18:10:29.872Z,2.20
2018-01-14T18:12:57.558Z,2.10
2018-01-14T18:15:25.162Z,2.10
2018-01-14T18:17:53.486Z,2.10
2018-01-14T18:20:21.130Z,2.10
2018-01-14T18:22:48.702Z,2.10
2018-01-14T18:25:16.319Z,2.10
2018-01-14T18:27:44.681Z,2.00
2018-01-14T18:30:12.282Z,2.00
2018-01-14T18:32:39.894Z,2.00
2018-01-14T18:35:07.495Z,1.90
2018-01-14T18:37:35.070Z,1.90
2018-01-14T18:40:02.663Z,1.90
2018-01-14T18:42:30.230Z,1.90
2018-01-14T18:44:58.622Z,1.80
2018-01-14T18:47:26.197Z,1.80
2018-01-14T18:49:54.523Z,1.90
2018-01-14T18:52:22.178Z,1.90
2018-01-14T18:54:49.893Z,1.80
2018-01-14T18:57:18.443Z,1.80
2018-01-14T18:59:46.101Z,1.80
2018-01-14T19:02:13.753Z,1.90
2018-01-14T19:04:41.385Z,1.90
2018-01-14T19:07:08.946Z,1.90
2018-01-14T19:09:36.546Z,1.80
2018-01-14T19:12:04.151Z,1.80
2018-01-14T19:14:31.766Z,1.70
2018-01-14T19:16:59.585Z,1.80
2018-01-14T19:19:27.553Z,1.80
2018-01-14T19:21:55.406Z,1.80
2018-01-14T19:24:23.071Z,1.70
2018-01-14T19:26:50.830Z,1.70
2018-01-14T19:29:18.546Z,1.60
2018-01-14T19:31:47.085Z,1.50
2018-01-14T19:34:14.786Z,1.50
2018-01-14T19:36:43.293Z,1.30
2018-01-14T19:39:11.250Z,1.20
2018-01-14T19:41:39.163Z,1.20
2018-01-14T19:44:06.969Z,1.00
2018-01-14T19:46:35.578Z,1.10
2018-01-14T19:49:04.116Z,1.10
2018-01-14T19:51:32.159Z,1.10
2018-01-14T19:54:00.028Z,1.10
2018-01-14T19:56:28.299Z,1.10
2018-01-14T19:58:56.277Z,1.00
2018-01-14T20:01:24.340Z,1.00
2018-01-14T20:03:52.422Z,0.90
2018-01-14T20:06:20.487Z,0.80
2018-01-14T20:08:48.550Z,0.90
2018-01-14T20:11:16.515Z,0.90
2018-01-14T20:13:44.570Z,1.00
2018-01-14T20:16:12.656Z,1.00
2018-01-14T20:18:40.829Z,1.10
2018-01-14T20:21:08.906Z,1.00
2018-01-14T20:23:36.978Z,0.70
2018-01-14T20:26:04.938Z,0.90
2018-01-14T20:28:32.905Z,0.90
2018-01-14T20:31:01.179Z,0.90
2018-01-14T20:33:29.251Z,1.00
2018-01-14T20:35:57.321Z,0.90
2018-01-14T20:38:25.289Z,0.90
2018-01-14T20:40:53.461Z,0.90
2018-01-14T20:43:21.430Z,0.80
2018-01-14T20:45:49.465Z,0.70
2018-01-14T20:48:17.672Z,0.70
2018-01-14T20:50:45.504Z,0.60
2018-01-14T20:53:13.840Z,0.60
2018-01-14T20:55:41.386Z,0.60
2018-01-14T20:58:09.011Z,0.60
2018-01-14T21:00:36.598Z,0.70
2018-01-14T21:03:04.188Z,0.70
2018-01-14T21:05:31.811Z,0.80
2018-01-14T21:07:59.498Z,0.80
2018-01-14T21:10:27.110Z,0.80
2018-01-14T21:12:55.466Z,0.80
2018-01-14T21:15:23.090Z,0.80
2018-01-14T21:17:50.686Z,0.70
2018-01-14T21:20:19.026Z,0.70
2018-01-14T21:22:46.646Z,0.70
2018-01-14T21:25:14.215Z,0.70
2018-01-14T21:27:41.767Z,0.80
2018-01-14T21:30:09.405Z,0.70
2018-01-14T21:32:37.750Z,0.80
2018-01-14T21:35:05.558Z,0.80
2018-01-14T21:37:33.898Z,0.80
2018-01-14T21:40:01.576Z,0.80
2018-01-14T21:42:29.176Z,0.80
2018-01-14T21:44:56.887Z,0.80
2018-01-14T21:47:24.515Z,0.80
2018-01-14T21:49:52.071Z,0.80
2018-01-14T21:52:19.659Z,0.70
2018-01-14T21:54:47.287Z,0.70
2018-01-14T21:57:14.859Z,0.70
2018-01-14T21:59:42.465Z,0.70
2018-01-14T22:02:10.867Z,0.70
2018-01-14T22:04:38.527Z,0.70
2018-01-14T22:07:06.233Z,0.70
2018-01-14T22:09:33.793Z,0.70
2018-01-14T22:12:01.519Z,0.70
2018-01-14T22:14:29.102Z,0.70
2018-01-14T22:16:56.747Z,0.60
2018-01-14T22:19:24.330Z,0.60
2018-01-14T22:21:51.889Z,0.60
2018-01-14T22:24:19.486Z,0.70
2018-01-14T22:26:47.987Z,0.70
2018-01-14T22:29:15.602Z,0.70
2018-01-14T22:31:43.182Z,0.80
2018-01-14T22:34:11.531Z,0.80
2018-01-14T22:36:39.115Z,0.80
2018-01-14T22:39:07.538Z,0.80
2018-01-14T22:41:35.169Z,0.80
2018-01-14T22:44:02.735Z,0.80
2018-01-14T22:46:30.291Z,0.80
2018-01-14T22:48:57.890Z,0.80
2018-01-14T22:51:25.514Z,0.70
2018-01-14T22:53:53.074Z,0.80
2018-01-14T22:56:20.674Z,0.80
2018-01-14T22:58:49.234Z,0.80
2018-01-14T23:01:16.854Z,0.70
2018-01-14T23:03:45.347Z,0.80
2018-01-14T23:06:12.946Z,0.80
2018-01-14T23:08:40.523Z,0.80
2018-01-14T23:11:08.123Z,0.80
2018-01-14T23:13:35.688Z,0.70
2018-01-14T23:16:03.263Z,0.70
2018-01-14T23:18:30.850Z,0.70
2018-01-14T23:20:58.447Z,0.70
2018-01-14T23:23:26.807Z,0.70
2018-01-14T23:25:55.269Z,0.70
2018-01-14T23:28:22.882Z,0.70
2018-01-14T23:30:50.502Z,0.70
2018-01-14T23:33:18.062Z,0.70
2018-01-14T23:35:45.650Z,0.60
2018-01-14T23:38:13.250Z,0.60
2018-01-14T23:40:40.814Z,0.60
2018-01-14T23:43:08.398Z,0.50
2018-01-14T23:45:35.958Z,0.60
2018-01-14T23:48:04.310Z,0.50
2018-01-14T23:50:31.911Z,0.50
2018-01-14T23:52:59.522Z,0.40
2018-01-14T23:55:27.086Z,0.30
2018-01-14T23:57:54.690Z,0.30
